Time;durP1;ratioP1;P1;durP2;ratioP2;P2;SDS_P1;SDS_P2;PMS_P1;PMS_P2;Temp;Humidity;BMP_temperature;BMP_pressure;BME280_temperature;BME280_humidity;BME280_pressure;Samples;Min_cycle;Max_cycle;Signal;HPM_P1;HPM_P2
2021/12/05 00:18:59;;;;;;;51.20;19.93;;;;;;;-1.70;78.99;98920.19;4095301;29;20588;-81
2021/12/05 00:24:02;;;;;;;51.10;21.23;;;;;;;-1.78;79.43;98917.28;4074075;29;20256;-86
2021/12/05 00:26:29;;;;;;;54.70;20.17;;;;;;;-1.70;79.39;98924.56;4084471;29;20323;-84
2021/12/05 00:43:09;;;;;;;53.20;19.77;;;;;;;-1.85;80.60;98928.22;4068679;29;20240;-80
2021/12/05 00:51:03;;;;;;;51.07;20.30;;;;;;;-1.77;80.45;98938.97;4096585;29;20241;-81
2021/12/05 00:56:19;;;;;;;51.53;20.23;;;;;;;-1.81;80.78;98934.91;4095623;29;20238;-81
2021/12/05 00:59:12;;;;;;;57.10;20.50;;;;;;;-1.91;81.61;98937.28;4106112;29;20315;-80
2021/12/05 01:02:01;;;;;;;52.07;20.40;;;;;;;-1.98;81.75;98936.03;4081168;29;20376;-82
2021/12/05 01:04:40;;;;;;;51.33;20.23;;;;;;;-1.90;81.10;98938.94;4080174;29;21322;-77
2021/12/05 01:07:31;;;;;;;46.87;19.63;;;;;;;-1.89;81.13;98947.63;4076772;29;20491;-78
2021/12/05 01:13:13;;;;;;;49.03;19.80;;;;;;;-1.97;81.96;98955.94;4074121;29;20617;-78
2021/12/05 01:15:32;;;;;;;51.00;19.73;;;;;;;-2.07;82.64;98954.88;4081354;29;20250;-79
2021/12/05 01:20:34;;;;;;;55.47;19.87;;;;;;;-2.20;83.43;98957.47;4076334;29;20415;-81
2021/12/05 01:23:08;;;;;;;52.10;20.50;;;;;;;-2.25;83.89;98959.53;4080688;29;20282;-79
2021/12/05 01:25:58;;;;;;;56.20;20.87;;;;;;;-2.21;83.58;98953.19;4078272;29;20259;-81
2021/12/05 01:33:43;;;;;;;45.67;19.00;;;;;;;-2.25;84.18;98956.94;4075379;29;20237;-81
2021/12/05 01:36:17;;;;;;;46.17;18.93;;;;;;;-2.19;84.27;98949.56;4079344;29;21896;-80
2021/12/05 01:39:04;;;;;;;52.17;19.43;;;;;;;-2.22;84.21;98948.94;4080012;29;20254;-83
2021/12/05 01:52:13;;;;;;;46.47;18.90;;;;;;;-1.95;83.34;98933.22;4158126;29;21284;-81
2021/12/05 01:55:16;;;;;;;51.27;19.93;;;;;;;-1.89;82.92;98938.03;4080575;29;21485;-81
2021/12/05 01:57:56;;;;;;;51.03;19.70;;;;;;;-1.88;83.07;98937.06;4088463;29;25212;-80
2021/12/05 02:00:50;;;;;;;40.63;17.63;;;;;;;-1.90;82.90;98936.34;4080454;29;20247;-81
2021/12/05 02:31:18;;;;;;;45.43;18.77;;;;;;;-1.63;81.49;98930.22;4083926;29;21824;-81
2021/12/05 02:40:07;;;;;;;48.80;19.53;;;;;;;-1.39;80.62;98945.94;4074860;29;20247;-80
2021/12/05 02:42:40;;;;;;;47.93;18.60;;;;;;;-1.36;80.24;98945.72;4073321;29;20245;-82
2021/12/05 02:44:55;;;;;;;50.10;19.27;;;;;;;-1.47;80.64;98945.66;4068244;29;20895;-80
2021/12/05 02:47:25;;;;;;;45.60;18.17;;;;;;;-1.56;80.63;98944.50;4083288;29;20238;-84
2021/12/05 02:49:55;;;;;;;49.47;18.87;;;;;;;-1.46;81.03;98945.53;4083989;29;20233;-80
2021/12/05 02:52:37;;;;;;;45.27;18.37;;;;;;;-1.41;80.53;98934.78;4077039;29;20419;-82
2021/12/05 02:55:24;;;;;;;50.10;18.67;;;;;;;-1.54;80.72;98927.81;4088227;29;20301;-82
2021/12/05 02:57:55;;;;;;;47.07;17.67;;;;;;;-1.47;80.91;98932.59;4070551;29;23247;-80
2021/12/05 03:00:39;;;;;;;45.67;18.80;;;;;;;-1.45;80.99;98931.56;4084093;29;20413;-82
2021/12/05 03:03:17;;;;;;;49.47;19.30;;;;;;;-1.51;80.77;98924.97;4086076;29;20434;-82
2021/12/05 03:05:46;;;;;;;48.23;18.40;;;;;;;-1.49;80.73;98919.66;4071099;29;20674;-83
2021/12/05 03:08:13;;;;;;;53.27;20.10;;;;;;;-1.51;80.53;98918.94;4083062;29;21675;-80
2021/12/05 03:10:39;;;;;;;50.47;19.30;;;;;;;-1.41;80.30;98925.16;4185217;29;21204;-81
2021/12/05 03:13:06;;;;;;;47.90;18.70;;;;;;;-1.46;80.93;98916.81;4082272;29;21203;-81
2021/12/05 03:15:34;;;;;;;46.40;18.70;;;;;;;-1.42;81.31;98918.28;4077124;29;20268;-82
2021/12/05 03:18:00;;;;;;;40.77;18.50;;;;;;;-1.39;80.27;98918.06;4072262;29;20229;-83
2021/12/05 03:20:27;;;;;;;45.70;19.17;;;;;;;-1.42;80.83;98920.91;4079837;29;20298;-81
2021/12/05 03:22:54;;;;;;;50.33;19.60;;;;;;;-1.47;81.01;98922.19;4068935;29;20244;-82
2021/12/05 03:25:22;;;;;;;45.40;19.90;;;;;;;-1.40;79.96;98920.81;4079636;29;20386;-85
2021/12/05 03:27:49;;;;;;;51.37;19.90;;;;;;;-1.45;80.06;98922.88;4082814;29;21863;-78
2021/12/05 03:30:21;;;;;;;42.73;17.73;;;;;;;-1.45;80.38;98922.88;4087073;29;20229;-82
2021/12/05 03:32:50;;;;;;;44.60;18.73;;;;;;;-1.46;80.48;98922.03;4090765;29;20229;-79
2021/12/05 03:35:20;;;;;;;48.93;18.70;;;;;;;-1.53;80.25;98915.59;4084042;29;20333;-82
2021/12/05 03:37:47;;;;;;;44.43;19.40;;;;;;;-1.51;80.73;98916.31;4080502;29;20242;-84
2021/12/05 03:40:17;;;;;;;44.17;19.33;;;;;;;-1.55;80.58;98914.84;4089815;29;20294;-81
2021/12/05 03:42:44;;;;;;;45.60;18.97;;;;;;;-1.62;80.76;98916.22;4078245;29;20252;-84
2021/12/05 03:45:16;;;;;;;47.77;18.80;;;;;;;-1.64;81.33;98923.31;4091988;29;20249;-81
2021/12/05 03:47:43;;;;;;;47.70;18.77;;;;;;;-1.71;81.26;98934.19;4086628;29;21142;-81
2021/12/05 03:50:12;;;;;;;46.83;18.20;;;;;;;-1.74;81.47;98923.94;4075163;29;23576;-79
2021/12/05 03:52:39;;;;;;;43.70;18.33;;;;;;;-1.85;81.88;98916.03;4090412;29;21472;-82
2021/12/05 03:55:09;;;;;;;43.60;17.67;;;;;;;-1.90;82.26;98912.88;4061597;29;20245;-81
2021/12/05 03:57:35;;;;;;;44.97;17.63;;;;;;;-1.99;82.52;98908.28;4086574;29;20361;-81
2021/12/05 04:00:11;;;;;;;46.10;18.53;;;;;;;-2.06;83.07;98904.44;4067816;29;20301;-82
2021/12/05 04:02:37;;;;;;;41.40;17.80;;;;;;;-2.04;83.03;98920.78;4075036;29;20252;-79
2021/12/05 04:05:05;;;;;;;47.60;19.07;;;;;;;-2.06;83.13;98910.50;4082496;29;20266;-80
2021/12/05 04:07:32;;;;;;;44.70;18.77;;;;;;;-2.16;83.61;98912.84;4073557;29;20233;-80
2021/12/05 04:09:59;;;;;;;46.50;19.07;;;;;;;-2.16;83.41;98905.03;4076327;29;20934;-83
2021/12/05 04:12:26;;;;;;;47.17;18.93;;;;;;;-2.24;83.71;98903.91;4089141;29;22391;-78
2021/12/05 04:14:55;;;;;;;49.03;18.67;;;;;;;-2.27;83.91;98899.72;4073726;29;22132;-81
2021/12/05 04:17:22;;;;;;;51.27;19.47;;;;;;;-2.31;84.26;98908.69;4080951;29;20305;-80
2021/12/05 04:19:49;;;;;;;51.53;18.53;;;;;;;-2.27;84.41;98923.19;4086718;29;20251;-77
2021/12/05 04:22:15;;;;;;;47.97;18.47;;;;;;;-2.26;84.28;98918.78;4077814;29;20336;-79
2021/12/05 04:24:45;;;;;;;48.40;20.70;;;;;;;-2.28;83.96;98925.88;4082059;29;23096;-79
2021/12/05 04:27:12;;;;;;;44.93;19.03;;;;;;;-2.32;84.76;98930.44;4071136;29;20282;-79
2021/12/05 04:29:38;;;;;;;44.60;19.67;;;;;;;-2.39;85.14;98937.84;4077871;29;20302;-79
2021/12/05 04:32:06;;;;;;;47.83;19.13;;;;;;;-2.44;85.58;98939.06;4075372;29;20386;-82
2021/12/05 04:34:32;;;;;;;47.50;19.87;;;;;;;-2.47;85.54;98945.31;4084832;29;21656;-82
2021/12/05 04:36:59;;;;;;;46.13;20.13;;;;;;;-2.47;85.85;98945.31;4089076;29;20241;-84
2021/12/05 04:39:27;;;;;;;50.30;20.10;;;;;;;-2.34;85.64;98946.19;4085752;29;20325;-82
2021/12/05 04:41:54;;;;;;;44.83;20.37;;;;;;;-2.31;85.04;98949.53;4091433;29;20239;-79
2021/12/05 04:44:22;;;;;;;44.07;18.90;;;;;;;-2.29;85.22;98943.28;4098980;29;21618;-79
2021/12/05 04:46:49;;;;;;;43.67;19.10;;;;;;;-2.33;85.29;98947.03;4094560;29;20303;-83
2021/12/05 04:49:16;;;;;;;45.63;19.23;;;;;;;-2.38;84.99;98955.13;4090032;29;21630;-81
2021/12/05 04:51:44;;;;;;;39.77;18.17;;;;;;;-2.37;85.37;98948.97;4097285;29;20296;-81
2021/12/05 04:54:13;;;;;;;43.43;18.10;;;;;;;-2.38;85.43;98954.31;4083436;29;21954;-80
2021/12/05 04:56:40;;;;;;;46.77;19.70;;;;;;;-2.37;85.72;98964.59;4100042;29;20303;-83
2021/12/05 04:59:12;;;;;;;42.30;19.03;;;;;;;-2.36;85.69;98968.06;4109024;29;20305;-81
2021/12/05 05:01:45;;;;;;;53.00;20.03;;;;;;;-2.34;85.75;98966.19;4086908;29;20238;-81
2021/12/05 05:04:29;;;;;;;47.07;19.90;;;;;;;-2.31;85.77;98971.19;4092014;29;21553;-83
2021/12/05 05:07:02;;;;;;;45.53;18.73;;;;;;;-2.34;85.66;98950.56;4088235;29;20241;-79
2021/12/05 05:09:29;;;;;;;43.50;18.53;;;;;;;-2.34;85.24;98955.78;4091677;29;20233;-81
2021/12/05 05:11:56;;;;;;;43.70;18.80;;;;;;;-2.35;85.55;98965.34;4070018;29;20627;-79
2021/12/05 05:14:23;;;;;;;49.23;18.73;;;;;;;-2.29;85.45;98961.53;4077501;29;21665;-80
2021/12/05 05:16:54;;;;;;;51.83;19.63;;;;;;;-2.34;85.45;98956.59;4083473;29;20427;-79
2021/12/05 05:19:27;;;;;;;50.70;19.20;;;;;;;-2.37;85.76;98961.16;4083694;29;23089;-79
2021/12/05 05:28:05;;;;;;;44.00;18.57;;;;;;;-2.46;85.89;98964.38;4107322;29;20241;-80
2021/12/05 05:49:22;;;;;;;47.93;19.30;;;;;;;-2.34;86.18;98948.78;4096389;29;20244;-79
2021/12/05 05:51:48;;;;;;;46.07;18.40;;;;;;;-2.36;86.20;98948.06;4095580;29;20242;-82
2021/12/05 05:54:16;;;;;;;40.73;18.27;;;;;;;-2.33;85.61;98957.44;4104453;29;20271;-81
2021/12/05 05:56:44;;;;;;;43.00;18.43;;;;;;;-2.27;85.52;98949.22;4103059;29;20247;-79
2021/12/05 05:59:23;;;;;;;42.17;19.53;;;;;;;-2.36;85.57;98948.06;4105141;29;20290;-81
2021/12/05 06:04:18;;;;;;;41.60;18.50;;;;;;;-2.19;85.37;98962.56;4131402;29;20293;-80
2021/12/05 06:06:49;;;;;;;43.30;19.50;;;;;;;-2.21;85.03;98953.19;4107288;29;21637;-80
2021/12/05 06:09:16;;;;;;;46.47;20.27;;;;;;;-2.25;85.22;98954.31;4103103;29;20244;-84
2021/12/05 06:11:42;;;;;;;43.40;19.73;;;;;;;-2.17;85.33;98955.50;4120413;29;20238;-81
2021/12/05 06:14:09;;;;;;;46.97;19.33;;;;;;;-2.11;84.44;98949.03;4116365;29;21965;-80
2021/12/05 06:16:35;;;;;;;48.50;20.33;;;;;;;-2.15;84.63;98961.44;4109955;29;20238;-80
2021/12/05 06:19:02;;;;;;;43.60;20.57;;;;;;;-2.19;84.82;98957.38;4111709;29;21316;-80
2021/12/05 06:21:29;;;;;;;47.23;19.23;;;;;;;-2.18;84.73;98966.88;4118589;29;20233;-82
2021/12/05 06:23:55;;;;;;;45.80;19.80;;;;;;;-2.25;84.77;98962.97;4111073;29;20265;-83
2021/12/05 06:26:23;;;;;;;50.70;19.50;;;;;;;-2.27;85.00;98957.03;4092833;29;20231;-82
2021/12/05 06:29:08;;;;;;;42.20;18.53;;;;;;;-2.21;84.77;98977.47;4116144;29;20233;-79
2021/12/05 06:31:52;;;;;;;46.57;19.70;;;;;;;-2.24;85.13;98982.88;4102560;29;22239;-81
2021/12/05 06:39:48;;;;;;;45.20;19.80;;;;;;;-2.25;84.87;98986.41;4099673;29;20286;-77
2021/12/05 06:47:36;;;;;;;50.07;20.47;;;;;;;-2.24;84.64;98998.53;4089528;29;20237;-78
2021/12/05 06:50:03;;;;;;;50.13;20.20;;;;;;;-2.22;84.44;98995.84;4097046;29;20341;-78
2021/12/05 06:52:41;;;;;;;46.80;21.00;;;;;;;-2.16;84.63;98998.00;4100019;29;22881;-78
2021/12/05 06:55:08;;;;;;;51.97;20.57;;;;;;;-2.12;83.83;98997.72;4086372;29;21370;-79
2021/12/05 06:57:34;;;;;;;40.90;18.60;;;;;;;-2.20;84.41;98997.41;4083010;29;24153;-79
2021/12/05 07:00:05;;;;;;;46.23;20.20;;;;;;;-2.06;83.68;99001.72;4100114;29;20236;-78
2021/12/05 07:02:33;;;;;;;45.53;20.50;;;;;;;-1.96;83.45;99013.19;4099880;29;23267;-80
2021/12/05 07:07:34;;;;;;;42.10;18.33;;;;;;;-2.01;83.51;99012.66;4084274;29;20234;-79
2021/12/05 07:10:02;;;;;;;45.37;19.97;;;;;;;-1.96;83.95;99021.00;4099853;29;23425;-80
2021/12/05 07:15:33;;;;;;;43.20;19.93;;;;;;;-1.73;82.95;99029.94;4070859;29;20372;-77
2021/12/05 07:42:23;;;;;;;47.63;20.40;;;;;;;-1.28;81.08;99029.53;4084218;29;20745;-77
2021/12/05 07:44:55;;;;;;;48.27;20.77;;;;;;;-1.17;80.45;99028.78;4107719;29;22605;-78
2021/12/05 07:47:27;;;;;;;51.37;21.17;;;;;;;-1.25;80.50;99028.50;4089067;29;20239;-77
2021/12/05 07:49:56;;;;;;;46.57;20.57;;;;;;;-1.23;80.04;99026.63;4083173;29;20239;-79
2021/12/05 07:52:26;;;;;;;46.17;20.03;;;;;;;-1.16;80.20;99026.09;4085636;29;20246;-80
2021/12/05 07:55:04;;;;;;;46.80;21.43;;;;;;;-1.23;80.58;99030.06;4087472;29;20366;-79
2021/12/05 07:57:42;;;;;;;48.50;21.53;;;;;;;-1.28;80.53;99029.53;4079882;29;20279;-77
2021/12/05 08:00:24;;;;;;;48.10;21.73;;;;;;;-1.24;81.07;99030.16;4071352;29;20774;-80
2021/12/05 08:16:49;;;;;;;48.97;21.60;;;;;;;-0.75;78.29;99042.41;4079640;29;20286;-79
2021/12/05 08:19:18;;;;;;;45.47;20.97;;;;;;;-0.77;77.69;99046.91;4082561;29;21776;-80
2021/12/05 08:21:46;;;;;;;44.70;19.43;;;;;;;-0.83;78.00;99044.75;4071319;29;25944;-77
2021/12/05 08:24:12;;;;;;;55.17;21.83;;;;;;;-0.90;78.25;99044.34;4093520;29;21724;-74
2021/12/05 08:26:39;;;;;;;49.67;20.70;;;;;;;-0.81;77.98;99059.38;4078151;29;20233;-77
2021/12/05 08:29:08;;;;;;;44.00;19.97;;;;;;;-0.79;77.61;99054.03;4106842;29;20234;-77
2021/12/05 08:32:06;;;;;;;47.30;21.23;;;;;;;-0.67;77.61;99058.41;4070078;29;20241;-74
2021/12/05 08:34:49;;;;;;;50.70;20.20;;;;;;;-0.70;77.13;99053.41;4087696;29;22390;-82
2021/12/05 09:21:32;;;;;;;45.47;19.03;;;;;;;-0.37;75.48;99065.84;4120398;29;20324;-81
2021/12/05 09:26:45;;;;;;;48.87;18.63;;;;;;;-0.28;75.08;99064.34;4081985;29;20876;-77
2021/12/05 10:15:43;;;;;;;44.27;19.07;;;;;;;0.29;72.14;99063.66;4083947;29;20659;-84
2021/12/05 10:27:14;;;;;;;50.10;22.00;;;;;;;0.08;73.39;99057.41;4077663;29;20237;-78
2021/12/05 10:36:28;;;;;;;46.63;21.07;;;;;;;-0.12;74.93;99054.44;4088431;29;20237;-77
2021/12/05 10:38:52;;;;;;;47.10;20.73;;;;;;;-0.20;74.35;99054.19;4107180;29;20238;-78
2021/12/05 10:44:04;;;;;;;51.00;21.97;;;;;;;-0.17;75.39;99056.56;4071326;29;20245;-81
2021/12/05 10:46:32;;;;;;;50.50;21.57;;;;;;;-0.19;75.11;99055.84;4067963;29;20244;-85
2021/12/05 10:49:11;;;;;;;54.67;23.13;;;;;;;-0.30;75.78;99058.41;4082433;29;20295;-79
2021/12/05 10:51:49;;;;;;;47.83;21.57;;;;;;;-0.15;75.84;99057.28;4072795;29;20267;-80
2021/12/05 10:54:18;;;;;;;49.97;20.73;;;;;;;-0.25;75.81;99046.66;4079593;29;20233;-80
2021/12/05 10:56:51;;;;;;;48.10;22.43;;;;;;;-0.34;76.09;99047.31;4098959;29;20240;-84
2021/12/05 10:59:34;;;;;;;47.13;21.60;;;;;;;-0.44;76.21;99047.16;4070209;29;22004;-81
2021/12/05 11:02:08;;;;;;;53.10;21.60;;;;;;;-0.55;76.59;99041.84;4068187;29;22703;-79
2021/12/05 11:04:41;;;;;;;49.17;21.07;;;;;;;-0.48;77.14;99040.47;4081225;29;20248;-81
2021/12/05 11:07:13;;;;;;;47.87;21.43;;;;;;;-0.48;76.69;99040.47;4102001;29;20279;-77
2021/12/05 11:09:57;;;;;;;47.60;20.80;;;;;;;-0.41;76.38;99050.50;4094225;29;23478;-81
2021/12/05 11:12:27;;;;;;;52.03;22.50;;;;;;;-0.32;77.21;99036.78;4083892;29;20244;-78
2021/12/05 11:15:03;;;;;;;46.30;21.07;;;;;;;-0.31;75.92;99043.66;4080173;29;20241;-79
2021/12/05 11:17:33;;;;;;;47.60;20.93;;;;;;;-0.38;76.25;99045.03;4089564;29;20243;-82
2021/12/05 11:20:09;;;;;;;48.17;21.33;;;;;;;-0.34;76.77;99051.72;4105099;29;20233;-82
2021/12/05 11:22:47;;;;;;;52.80;21.70;;;;;;;-0.25;76.26;99058.91;4112648;29;20227;-81
2021/12/05 11:25:22;;;;;;;48.07;21.07;;;;;;;-0.18;75.81;99057.53;4066860;29;20246;-80
2021/12/05 11:27:54;;;;;;;48.50;22.10;;;;;;;-0.27;76.05;99055.56;4096501;29;20935;-78
2021/12/05 11:30:31;;;;;;;46.57;21.30;;;;;;;-0.33;76.50;99051.63;4085092;29;20382;-75
2021/12/05 11:33:17;;;;;;;53.20;21.63;;;;;;;-0.26;76.60;99059.84;4067587;29;20249;-77
2021/12/05 11:35:52;;;;;;;52.97;21.80;;;;;;;-0.31;76.48;99056.72;4080450;29;23301;-77
2021/12/05 11:38:21;;;;;;;56.07;22.63;;;;;;;-0.28;76.87;99053.88;4089719;29;20241;-78
2021/12/05 11:40:49;;;;;;;58.00;23.17;;;;;;;-0.24;76.96;99056.16;4090641;29;20321;-80
2021/12/05 11:43:20;;;;;;;51.87;23.10;;;;;;;-0.23;76.86;99062.25;4085231;29;22576;-78
2021/12/05 11:45:55;;;;;;;53.83;22.73;;;;;;;-0.10;76.38;99065.63;4060594;29;20406;-80
2021/12/05 11:48:25;;;;;;;50.90;23.50;;;;;;;-0.07;76.29;99069.78;4090789;29;21386;-82
2021/12/05 11:50:56;;;;;;;56.67;24.30;;;;;;;-0.03;76.29;99069.47;4078343;29;20811;-83
2021/12/05 11:53:42;;;;;;;54.37;23.00;;;;;;;-0.01;75.88;99062.34;4134911;29;21489;-81
2021/12/05 11:56:17;;;;;;;57.97;23.83;;;;;;;-0.09;76.25;99062.09;4113110;29;20245;-82
2021/12/05 11:59:17;;;;;;;54.27;23.87;;;;;;;-0.11;76.92;99050.91;4107093;29;20248;-87
2021/12/05 12:01:57;;;;;;;58.77;23.20;;;;;;;-0.06;76.84;99054.00;4100533;29;21544;-86
2021/12/05 12:04:37;;;;;;;61.20;23.23;;;;;;;-0.11;77.32;99050.91;4184245;29;20302;-89
2021/12/05 12:07:16;;;;;;;55.33;24.03;;;;;;;-0.32;77.95;99044.63;4134781;29;20389;-84
2021/12/05 12:09:45;;;;;;;56.53;23.73;;;;;;;-0.40;78.45;99026.03;4116562;29;25156;-81
2021/12/05 12:12:12;;;;;;;56.93;24.33;;;;;;;-0.55;79.17;99028.78;4126438;29;22267;-81
2021/12/05 12:14:39;;;;;;;63.93;25.10;;;;;;;-0.60;79.63;99033.50;4102705;29;20243;-82
2021/12/05 12:17:12;;;;;;;61.13;25.40;;;;;;;-0.72;81.24;99027.38;4119268;29;20303;-77
2021/12/05 12:19:39;;;;;;;65.50;24.43;;;;;;;-0.83;82.23;99018.63;4098852;29;20325;-79
2021/12/05 12:22:07;;;;;;;57.57;26.10;;;;;;;-0.95;83.69;99021.16;4094713;29;20298;-81
2021/12/05 12:24:36;;;;;;;61.63;25.17;;;;;;;-0.98;84.01;99016.16;4077125;29;20252;-83
2021/12/05 12:27:03;;;;;;;58.57;25.43;;;;;;;-0.94;84.19;99017.59;4155603;29;20627;-80
2021/12/05 12:29:30;;;;;;;59.20;25.10;;;;;;;-0.92;84.15;99028.75;4093911;29;20248;-84
2021/12/05 12:32:11;;;;;;;65.93;24.70;;;;;;;-0.82;84.91;99025.50;4101856;29;21635;-75
2021/12/05 12:34:40;;;;;;;56.03;24.27;;;;;;;-0.66;84.96;99021.72;4074772;29;21062;-79
2021/12/05 12:37:07;;;;;;;61.40;27.50;;;;;;;-0.60;84.76;99015.22;4065387;29;20268;-78
2021/12/05 12:39:37;;;;;;;57.37;25.37;;;;;;;-0.46;84.20;99015.06;4074117;29;21025;-76
2021/12/05 12:42:23;;;;;;;59.03;24.37;;;;;;;-0.47;83.72;99031.72;4094431;29;20286;-81
2021/12/05 12:45:05;;;;;;;52.23;23.87;;;;;;;-0.50;84.50;99033.69;4107888;29;20241;-79
2021/12/05 12:47:45;;;;;;;54.60;23.77;;;;;;;-0.36;84.99;99030.09;4087007;29;20304;-82
2021/12/05 12:50:24;;;;;;;53.27;23.93;;;;;;;-0.34;84.94;99043.88;4086386;29;20273;-82
2021/12/05 12:53:14;;;;;;;58.00;24.00;;;;;;;-0.40;85.25;99052.16;4099001;29;20229;-81
2021/12/05 12:56:00;;;;;;;53.77;22.73;;;;;;;-0.44;85.81;99047.16;4088883;29;20608;-81
2021/12/05 12:58:35;;;;;;;52.97;23.70;;;;;;;-0.59;86.48;99053.47;4075865;29;20580;-79
2021/12/05 13:10:25;;;;;;;47.93;21.13;;;;;;;-0.55;87.51;99060.13;4073510;29;20325;-80
2021/12/05 13:12:53;;;;;;;49.60;22.57;;;;;;;-0.48;87.68;99058.75;4064792;29;21500;-78
2021/12/05 13:15:29;;;;;;;52.60;22.93;;;;;;;-0.40;87.81;99073.06;4066921;29;23182;-78
2021/12/05 13:18:01;;;;;;;51.87;22.03;;;;;;;-0.57;87.64;99075.09;4072944;29;21397;-80
2021/12/05 13:20:52;;;;;;;46.73;21.80;;;;;;;-0.57;88.24;99082.09;4116273;29;20325;-83
2021/12/05 13:23:37;;;;;;;53.80;21.87;;;;;;;-0.47;88.99;99086.56;4113055;29;21261;-83
2021/12/05 13:26:34;;;;;;;51.67;22.40;;;;;;;-0.35;89.13;99091.84;4072618;29;20874;-79
2021/12/05 13:29:10;;;;;;;53.40;23.00;;;;;;;-0.34;89.19;99099.59;4075356;29;20313;-82
2021/12/05 13:31:57;;;;;;;51.53;22.13;;;;;;;-0.56;89.70;99100.28;4072382;29;20328;-79
2021/12/05 13:34:44;;;;;;;53.97;23.60;;;;;;;-0.63;90.79;99109.50;4074815;29;20284;-82
2021/12/05 13:37:13;;;;;;;54.23;22.70;;;;;;;-0.58;91.83;99123.06;4068943;29;20402;-80
2021/12/05 13:39:53;;;;;;;58.23;24.77;;;;;;;-0.64;92.26;99119.09;4082541;29;21271;-78
2021/12/05 13:42:25;;;;;;;51.50;23.57;;;;;;;-0.59;93.05;99121.38;4056269;29;21372;-82
2021/12/05 13:45:01;;;;;;;56.30;24.37;;;;;;;-0.58;93.34;99128.28;4095572;29;20247;-84
2021/12/05 13:47:49;;;;;;;53.03;23.40;;;;;;;-0.70;94.10;99118.69;4087482;29;20266;-86
2021/12/05 13:50:18;;;;;;;51.10;24.00;;;;;;;-0.67;94.41;99123.72;4068912;29;22017;-82
2021/12/05 13:52:53;;;;;;;52.97;22.80;;;;;;;-0.77;94.06;99117.44;4082657;29;20890;-77
2021/12/05 13:55:33;;;;;;;56.13;24.63;;;;;;;-0.82;94.76;99129.97;4058879;29;20348;-79
2021/12/05 13:58:16;;;;;;;56.33;23.17;;;;;;;-0.80;95.31;99123.69;4098545;29;20246;-78
2021/12/05 14:00:59;;;;;;;54.57;23.73;;;;;;;-0.79;95.45;99119.34;4082364;29;21776;-83
2021/12/05 14:03:52;;;;;;;53.03;24.40;;;;;;;-0.82;95.52;99127.34;4110995;29;21196;-85
2021/12/05 14:06:42;;;;;;;50.50;24.33;;;;;;;-0.84;96.15;99122.25;4088684;29;22545;-81
2021/12/05 14:09:11;;;;;;;58.17;25.20;;;;;;;-1.00;97.08;99125.06;4096153;29;20268;-79
2021/12/05 14:11:47;;;;;;;62.27;26.70;;;;;;;-1.01;97.43;99126.00;4077270;29;21349;-80
2021/12/05 14:14:15;;;;;;;58.23;25.53;;;;;;;-0.99;97.95;99121.50;4079039;29;20243;-81
2021/12/05 14:16:43;;;;;;;57.73;25.50;;;;;;;-1.09;98.25;99121.31;4070313;29;25817;-79
2021/12/05 14:19:13;;;;;;;62.33;27.30;;;;;;;-1.02;98.31;99119.13;4093953;29;20293;-81
2021/12/05 14:21:47;;;;;;;60.23;26.27;;;;;;;-1.06;98.83;99122.88;4104977;29;20308;-79
2021/12/05 14:24:16;;;;;;;71.47;29.10;;;;;;;-1.16;99.16;99127.03;4104170;29;20860;-78
2021/12/05 14:26:43;;;;;;;66.80;27.70;;;;;;;-1.28;100.00;99123.50;4075365;29;20237;-79
2021/12/05 14:29:16;;;;;;;65.43;28.03;;;;;;;-1.33;100.00;99118.56;4078316;29;20307;-78
2021/12/05 14:31:53;;;;;;;62.23;27.33;;;;;;;-1.30;100.00;99120.97;4075608;29;20361;-78
2021/12/05 14:34:20;;;;;;;65.73;28.50;;;;;;;-1.35;100.00;99117.84;4112275;29;25617;-80
2021/12/05 14:36:53;;;;;;;66.63;28.07;;;;;;;-1.33;100.00;99115.97;4106187;29;20250;-79
2021/12/05 14:39:21;;;;;;;65.20;29.53;;;;;;;-1.30;100.00;99115.75;4076783;29;20975;-83
2021/12/05 14:41:51;;;;;;;67.07;30.43;;;;;;;-1.37;100.00;99124.09;4080443;29;20238;-80
2021/12/05 14:44:18;;;;;;;64.93;29.13;;;;;;;-1.36;100.00;99131.84;4093740;29;25421;-80
2021/12/05 14:46:49;;;;;;;70.97;30.17;;;;;;;-1.46;100.00;99128.13;4060844;29;20386;-82
2021/12/05 14:49:16;;;;;;;66.33;31.27;;;;;;;-1.42;100.00;99131.41;4078958;29;20259;-81
2021/12/05 14:51:47;;;;;;;63.23;28.67;;;;;;;-1.35;100.00;99140.50;4090491;29;20240;-77
2021/12/05 14:54:36;;;;;;;68.13;31.03;;;;;;;-1.35;100.00;99141.31;4076047;29;20340;-81
2021/12/05 14:57:19;;;;;;;66.37;30.40;;;;;;;-1.29;100.00;99142.69;4094932;29;20240;-78
2021/12/05 14:59:48;;;;;;;64.60;29.77;;;;;;;-1.27;100.00;99146.84;4073459;29;20321;-79
2021/12/05 15:02:16;;;;;;;69.90;30.80;;;;;;;-1.24;100.00;99142.38;4076201;29;20529;-78
2021/12/05 15:04:46;;;;;;;71.80;30.37;;;;;;;-1.28;100.00;99144.38;4062967;29;20309;-79
2021/12/05 15:07:14;;;;;;;67.93;30.37;;;;;;;-1.29;100.00;99148.75;4066240;29;20241;-80
2021/12/05 15:09:43;;;;;;;67.83;30.77;;;;;;;-1.39;100.00;99146.84;4065927;29;20233;-81
2021/12/05 15:12:20;;;;;;;68.27;31.30;;;;;;;-1.31;100.00;99137.56;4085686;29;23750;-80
2021/12/05 15:14:49;;;;;;;73.37;31.13;;;;;;;-1.30;100.00;99147.06;4064765;29;20368;-80
2021/12/05 15:17:21;;;;;;;70.07;32.10;;;;;;;-1.30;100.00;99143.63;4075031;29;20250;-79
2021/12/05 15:19:52;;;;;;;67.40;32.40;;;;;;;-1.34;100.00;99145.59;4089802;29;21228;-80
2021/12/05 15:22:38;;;;;;;71.33;33.03;;;;;;;-1.39;100.00;99152.88;4075991;29;20325;-79
2021/12/05 15:25:08;;;;;;;75.67;33.60;;;;;;;-1.28;100.00;99154.81;4075552;29;20309;-80
2021/12/05 15:27:37;;;;;;;70.43;32.60;;;;;;;-1.26;100.00;99160.75;4079695;29;20245;-78
2021/12/05 15:30:09;;;;;;;76.93;33.30;;;;;;;-1.30;100.00;99167.94;4090621;29;20282;-80
2021/12/05 15:32:36;;;;;;;75.83;33.70;;;;;;;-1.24;100.00;99173.69;4066684;29;20242;-83
2021/12/05 15:35:08;;;;;;;74.57;33.47;;;;;;;-1.28;100.00;99160.84;4090145;29;20523;-79
2021/12/05 15:37:34;;;;;;;70.70;32.63;;;;;;;-1.33;100.00;99162.94;4083487;29;20240;-84
2021/12/05 15:40:04;;;;;;;70.70;32.00;;;;;;;-1.41;100.00;99166.97;4085633;29;20861;-79
2021/12/05 15:42:37;;;;;;;73.80;33.30;;;;;;;-1.36;100.00;99167.50;4086650;29;22740;-85
2021/12/05 15:45:12;;;;;;;73.07;32.20;;;;;;;-1.30;100.00;99169.72;4075358;29;25503;-82
2021/12/05 15:47:40;;;;;;;72.37;32.50;;;;;;;-1.28;100.00;99168.69;4101484;29;20234;-82
2021/12/05 15:50:37;;;;;;;71.57;33.70;;;;;;;-1.22;100.00;99163.97;4087642;29;21633;-80
2021/12/05 15:53:10;;;;;;;70.43;31.93;;;;;;;-1.19;100.00;99166.41;4099751;29;20990;-83
2021/12/05 15:55:40;;;;;;;68.70;32.07;;;;;;;-1.21;100.00;99169.13;4099381;29;20240;-79
2021/12/05 15:58:18;;;;;;;75.73;33.27;;;;;;;-1.18;100.00;99168.06;4082693;29;20409;-80
2021/12/05 16:00:52;;;;;;;73.67;33.43;;;;;;;-1.30;100.00;99173.16;4082865;29;20248;-81
2021/12/05 16:03:24;;;;;;;80.47;33.87;;;;;;;-1.29;100.00;99172.25;4086630;29;22160;-81
2021/12/05 16:05:59;;;;;;;74.30;34.70;;;;;;;-1.31;100.00;99171.50;4097464;29;20348;-81
2021/12/05 16:08:28;;;;;;;79.63;34.20;;;;;;;-1.27;100.00;99169.50;4090225;29;21801;-82
2021/12/05 16:10:59;;;;;;;79.50;33.87;;;;;;;-1.27;100.00;99172.94;4093409;29;20241;-83
2021/12/05 16:13:37;;;;;;;81.97;35.47;;;;;;;-1.18;100.00;99173.28;4074620;29;22737;-83
2021/12/05 16:16:27;;;;;;;78.50;35.33;;;;;;;-1.24;100.00;99179.78;4078761;29;20274;-81
2021/12/05 16:18:59;;;;;;;80.20;34.07;;;;;;;-1.27;100.00;99186.00;4083703;29;20241;-79
2021/12/05 16:21:34;;;;;;;70.13;32.20;;;;;;;-1.26;100.00;99179.03;4101921;29;20334;-77
2021/12/05 16:24:07;;;;;;;72.10;33.80;;;;;;;-1.31;100.00;99175.88;4093271;29;20244;-82
2021/12/05 16:26:35;;;;;;;75.20;33.53;;;;;;;-1.29;100.00;99174.84;4081584;29;21774;-81
2021/12/05 16:29:05;;;;;;;74.93;34.10;;;;;;;-1.21;100.00;99181.34;4080522;29;20587;-79
2021/12/05 16:31:37;;;;;;;75.77;34.60;;;;;;;-1.32;100.00;99180.25;4081031;29;20248;-81
2021/12/05 16:34:10;;;;;;;74.73;33.67;;;;;;;-1.26;100.00;99176.41;4086470;29;21981;-77
2021/12/05 16:36:41;;;;;;;73.90;33.90;;;;;;;-1.24;100.00;99181.50;4090177;29;20346;-81
2021/12/05 16:39:17;;;;;;;78.30;33.77;;;;;;;-1.23;100.00;99175.38;4097607;29;21863;-76
2021/12/05 16:41:53;;;;;;;75.50;34.03;;;;;;;-1.20;100.00;99178.59;4086521;29;20436;-79
2021/12/05 16:44:26;;;;;;;66.73;32.13;;;;;;;-1.22;100.00;99182.25;4083548;29;20798;-79